Time;durP1;ratioP1;P1;durP2;ratioP2;P2;SDS_P1;SDS_P2;PMS_P1;PMS_P2;Temp;Humidity;BMP_temperature;BMP_pressure;BME280_temperature;BME280_humidity;BME280_pressure;Samples;Min_cycle;Max_cycle;Signal;HPM_P1;HPM_P2
2023/03/13 00:01:49;;;;;;;21.08;6.47;;;;;;;;;;5141922;27;20038;-80
2023/03/13 00:04:15;;;;;;;25.23;7.45;;;;;;;;;;5124314;27;20084;-81
2023/03/13 00:06:41;;;;;;;20.50;7.38;;;;;;;;;;5117346;27;20039;-81
2023/03/13 00:09:08;;;;;;;26.80;7.68;;;;;;;;;;5123673;27;20031;-80
2023/03/13 00:11:35;;;;;;;26.65;7.90;;;;;;;;;;5121438;27;20103;-80
2023/03/13 00:14:02;;;;;;;27.15;7.82;;;;;;;;;;5120638;27;20034;-80
2023/03/13 00:16:28;;;;;;;28.65;7.70;;;;;;;;;;5141392;27;20079;-80
2023/03/13 00:18:55;;;;;;;27.90;8.82;;;;;;;;;;5122106;27;20091;-80
2023/03/13 00:21:22;;;;;;;26.30;7.40;;;;;;;;;;5122141;27;20059;-81
2023/03/13 00:23:48;;;;;;;25.83;6.78;;;;;;;;;;5139984;27;20057;-80
2023/03/13 00:26:16;;;;;;;20.05;6.82;;;;;;;;;;5119637;27;20717;-81
2023/03/13 00:28:42;;;;;;;27.13;7.20;;;;;;;;;;5121861;27;20481;-81
2023/03/13 00:31:10;;;;;;;26.25;7.22;;;;;;;;;;5127834;27;20035;-81
2023/03/13 00:33:37;;;;;;;22.95;8.02;;;;;;;;;;5133353;27;20031;-81
2023/03/13 00:36:05;;;;;;;26.75;7.40;;;;;;;;;;5124387;27;20061;-80
2023/03/13 00:38:31;;;;;;;26.15;7.57;;;;;;;;;;5118946;27;20154;-81
2023/03/13 00:41:01;;;;;;;25.35;7.05;;;;;;;;;;5139232;27;20039;-81
2023/03/13 00:43:27;;;;;;;30.33;7.43;;;;;;;;;;5139250;27;20042;-81
2023/03/13 00:45:53;;;;;;;22.10;6.80;;;;;;;;;;5120796;27;20085;-80
2023/03/13 00:48:19;;;;;;;24.85;8.68;;;;;;;;;;5136968;27;20050;-81
2023/03/13 00:50:45;;;;;;;25.08;8.25;;;;;;;;;;5144119;27;20490;-81
2023/03/13 00:53:11;;;;;;;31.63;7.95;;;;;;;;;;5124685;27;20035;-81
2023/03/13 00:55:37;;;;;;;31.80;9.82;;;;;;;;;;5127339;27;20100;-81
2023/03/13 00:58:03;;;;;;;30.35;8.68;;;;;;;;;;5135189;27;20031;-81
2023/03/13 01:00:29;;;;;;;32.63;9.00;;;;;;;;;;5145602;27;20073;-81
2023/03/13 01:02:55;;;;;;;35.50;9.27;;;;;;;;;;5121453;27;20074;-80
2023/03/13 01:05:21;;;;;;;28.98;8.77;;;;;;;;;;5134034;27;20130;-81
2023/03/13 01:07:47;;;;;;;26.48;9.13;;;;;;;;;;5141389;27;20118;-81
2023/03/13 01:10:13;;;;;;;24.98;8.35;;;;;;;;;;5140745;27;20103;-81
2023/03/13 01:12:40;;;;;;;26.02;8.82;;;;;;;;;;5125204;27;20134;-81
2023/03/13 01:15:07;;;;;;;31.75;9.95;;;;;;;;;;5119532;27;20047;-81
2023/03/13 01:17:33;;;;;;;25.70;9.43;;;;;;;;;;5141693;27;20031;-81
2023/03/13 01:19:59;;;;;;;26.63;9.23;;;;;;;;;;5137744;27;20099;-81
2023/03/13 01:22:26;;;;;;;26.48;9.32;;;;;;;;;;5128444;27;20074;-81
2023/03/13 01:24:52;;;;;;;36.03;10.68;;;;;;;;;;5145302;27;20478;-81
2023/03/13 01:27:18;;;;;;;28.88;10.48;;;;;;;;;;5146266;27;20047;-81
2023/03/13 01:29:44;;;;;;;26.50;10.27;;;;;;;;;;5117994;27;20081;-81
2023/03/13 01:32:10;;;;;;;23.15;9.30;;;;;;;;;;5137787;27;22114;-81
2023/03/13 01:34:36;;;;;;;26.48;10.02;;;;;;;;;;5123595;27;20443;-81
2023/03/13 01:37:02;;;;;;;28.17;10.30;;;;;;;;;;5119338;27;20039;-81
2023/03/13 01:39:28;;;;;;;25.88;11.18;;;;;;;;;;5124791;27;20049;-81
2023/03/13 01:41:54;;;;;;;20.05;9.40;;;;;;;;;;5122916;27;20100;-81
2023/03/13 01:44:22;;;;;;;22.42;9.50;;;;;;;;;;5124598;27;21867;-81
2023/03/13 01:46:48;;;;;;;29.05;9.23;;;;;;;;;;5124668;27;20059;-81
2023/03/13 01:49:22;;;;;;;24.45;9.60;;;;;;;;;;5144557;27;20083;-80
2023/03/13 01:51:48;;;;;;;18.38;8.00;;;;;;;;;;5146471;27;20125;-81
2023/03/13 01:54:41;;;;;;;22.10;8.75;;;;;;;;;;5144923;27;20117;-81
2023/03/13 01:57:07;;;;;;;22.33;8.98;;;;;;;;;;5118695;27;20047;-81
2023/03/13 01:59:37;;;;;;;19.88;9.98;;;;;;;;;;5144274;27;20115;-81
2023/03/13 02:02:04;;;;;;;19.20;9.00;;;;;;;;;;5143212;27;20045;-81
2023/03/13 02:04:31;;;;;;;10.93;7.38;;;;;;;;;;5144467;27;20058;-82
2023/03/13 02:07:02;;;;;;;18.38;8.00;;;;;;;;;;5131587;27;20092;-81
2023/03/13 02:09:29;;;;;;;20.13;8.85;;;;;;;;;;5145118;27;20146;-81
2023/03/13 02:12:01;;;;;;;18.75;8.02;;;;;;;;;;5127008;27;20051;-81
2023/03/13 02:14:29;;;;;;;21.30;10.35;;;;;;;;;;5148975;27;20058;-81
2023/03/13 02:16:55;;;;;;;17.85;9.25;;;;;;;;;;5124442;27;20046;-81
2023/03/13 02:19:42;;;;;;;20.17;10.02;;;;;;;;;;5121166;27;20047;-81
2023/03/13 02:22:11;;;;;;;16.88;9.52;;;;;;;;;;5127253;27;20074;-81
2023/03/13 02:24:45;;;;;;;13.65;8.82;;;;;;;;;;5152349;27;20077;-81
2023/03/13 02:27:11;;;;;;;21.25;10.60;;;;;;;;;;5148894;27;20057;-81
2023/03/13 02:29:37;;;;;;;16.65;9.35;;;;;;;;;;5125321;27;20050;-81
2023/03/13 02:32:04;;;;;;;16.80;9.82;;;;;;;;;;5138567;27;20047;-81
2023/03/13 02:34:32;;;;;;;11.55;7.78;;;;;;;;;;5141979;27;20858;-81
2023/03/13 02:36:59;;;;;;;15.25;8.25;;;;;;;;;;5145711;27;20439;-81
2023/03/13 02:39:25;;;;;;;12.13;8.45;;;;;;;;;;5140404;27;20092;-81
2023/03/13 02:41:52;;;;;;;16.25;9.73;;;;;;;;;;5123901;27;20058;-81
2023/03/13 02:44:18;;;;;;;14.80;8.27;;;;;;;;;;5123720;27;20049;-81
2023/03/13 02:46:51;;;;;;;13.15;7.82;;;;;;;;;;5124481;27;20039;-80
2023/03/13 02:49:17;;;;;;;;;;;;;;;;;;5136117;27;20043;-81
2023/03/13 02:51:45;;;;;;;16.50;9.48;;;;;;;;;;5147988;27;20404;-81
2023/03/13 02:54:17;;;;;;;15.90;9.48;;;;;;;;;;5152076;27;20110;-81
2023/03/13 02:56:45;;;;;;;16.63;10.57;;;;;;;;;;5124065;27;20051;-81
2023/03/13 02:59:11;;;;;;;14.60;9.43;;;;;;;;;;5120740;27;20486;-80
2023/03/13 03:01:37;;;;;;;15.00;9.50;;;;;;;;;;5123901;27;20397;-81
2023/03/13 03:04:03;;;;;;;12.50;9.13;;;;;;;;;;5145081;27;20039;-81
2023/03/13 03:06:29;;;;;;;16.80;11.23;;;;;;;;;;5125738;27;20038;-81
2023/03/13 03:08:55;;;;;;;11.70;9.15;;;;;;;;;;5146328;27;20402;-81
2023/03/13 03:11:21;;;;;;;12.48;8.70;;;;;;;;;;5148415;27;20095;-82
2023/03/13 03:13:47;;;;;;;13.23;9.23;;;;;;;;;;5139199;27;20062;-81
2023/03/13 03:16:17;;;;;;;14.40;8.20;;;;;;;;;;5123107;27;20508;-81
2023/03/13 03:18:43;;;;;;;11.98;8.43;;;;;;;;;;5123664;27;20561;-81
2023/03/13 03:21:09;;;;;;;12.98;8.07;;;;;;;;;;5123074;27;20055;-81
2023/03/13 03:23:36;;;;;;;14.00;8.57;;;;;;;;;;5125831;27;20055;-81
2023/03/13 03:26:03;;;;;;;12.10;8.60;;;;;;;;;;5117141;27;20138;-81
2023/03/13 03:28:29;;;;;;;10.57;7.90;;;;;;;;;;5126170;27;20050;-81
2023/03/13 03:30:55;;;;;;;13.82;9.73;;;;;;;;;;5123936;27;20097;-81
2023/03/13 03:33:22;;;;;;;12.48;8.10;;;;;;;;;;5127619;27;20039;-80
2023/03/13 03:35:48;;;;;;;15.10;9.35;;;;;;;;;;5129988;27;20051;-80
2023/03/13 03:38:14;;;;;;;17.00;9.57;;;;;;;;;;5129488;27;20063;-80
2023/03/13 03:40:40;;;;;;;13.70;8.57;;;;;;;;;;5131517;27;20434;-80
2023/03/13 03:43:06;;;;;;;15.15;9.15;;;;;;;;;;5130134;27;20042;-80
2023/03/13 03:45:32;;;;;;;15.98;8.70;;;;;;;;;;5132614;27;20049;-80
2023/03/13 03:47:58;;;;;;;21.88;10.30;;;;;;;;;;5130345;27;20613;-79
2023/03/13 03:50:25;;;;;;;17.85;7.60;;;;;;;;;;5132246;27;20569;-80
2023/03/13 03:52:51;;;;;;;17.30;9.07;;;;;;;;;;5126720;27;20402;-80
2023/03/13 03:55:17;;;;;;;18.77;8.68;;;;;;;;;;5119176;27;20078;-80
2023/03/13 03:57:43;;;;;;;23.85;8.23;;;;;;;;;;5120525;27;20487;-80
2023/03/13 04:00:10;;;;;;;22.15;8.25;;;;;;;;;;5117675;27;20058;-81
2023/03/13 04:02:37;;;;;;;16.85;8.00;;;;;;;;;;5116950;27;20039;-80
2023/03/13 04:05:04;;;;;;;22.70;9.35;;;;;;;;;;5119073;27;20039;-80
2023/03/13 04:07:30;;;;;;;21.00;7.38;;;;;;;;;;5121024;27;20057;-81
2023/03/13 04:09:56;;;;;;;26.17;8.95;;;;;;;;;;5127575;27;20047;-80
2023/03/13 04:12:22;;;;;;;27.95;8.60;;;;;;;;;;5120816;27;20050;-81
2023/03/13 04:14:48;;;;;;;31.45;7.82;;;;;;;;;;5125791;27;20084;-80
2023/03/13 04:17:14;;;;;;;21.42;7.53;;;;;;;;;;5123383;27;20053;-80
2023/03/13 04:19:40;;;;;;;26.70;9.27;;;;;;;;;;5123063;27;20114;-80
2023/03/13 04:22:06;;;;;;;24.25;8.63;;;;;;;;;;5121478;27;20135;-80
2023/03/13 04:24:32;;;;;;;23.15;8.45;;;;;;;;;;5122439;27;20051;-80
2023/03/13 04:26:58;;;;;;;24.40;7.13;;;;;;;;;;5131842;27;20053;-80
2023/03/13 04:29:24;;;;;;;23.17;7.05;;;;;;;;;;5121585;27;20051;-80
2023/03/13 04:31:50;;;;;;;26.20;9.85;;;;;;;;;;5124536;27;20539;-80
2023/03/13 04:34:16;;;;;;;40.33;8.85;;;;;;;;;;5124913;27;20502;-80
2023/03/13 04:36:42;;;;;;;24.15;8.57;;;;;;;;;;5129961;27;20078;-80
2023/03/13 04:39:08;;;;;;;21.52;7.20;;;;;;;;;;5128181;27;20122;-80
2023/03/13 04:41:34;;;;;;;28.67;7.28;;;;;;;;;;5127968;27;20437;-79
2023/03/13 04:44:00;;;;;;;19.38;6.95;;;;;;;;;;5130942;27;20078;-80
2023/03/13 04:46:26;;;;;;;21.95;7.50;;;;;;;;;;5120315;27;20493;-80
2023/03/13 04:48:52;;;;;;;31.88;7.38;;;;;;;;;;5128658;27;20509;-80
2023/03/13 04:51:18;;;;;;;28.55;8.73;;;;;;;;;;5128268;27;20047;-80
2023/03/13 04:53:44;;;;;;;26.20;8.40;;;;;;;;;;5122313;27;20093;-80
2023/03/13 04:56:11;;;;;;;25.00;7.50;;;;;;;;;;5120073;27;20035;-80
2023/03/13 04:58:37;;;;;;;27.08;8.73;;;;;;;;;;5117074;27;20031;-80
2023/03/13 05:01:03;;;;;;;20.85;7.38;;;;;;;;;;5120357;27;20494;-81
2023/03/13 05:03:29;;;;;;;26.30;7.38;;;;;;;;;;5122288;27;20043;-81
2023/03/13 05:05:55;;;;;;;22.13;6.75;;;;;;;;;;5123005;27;20251;-81
2023/03/13 05:08:21;;;;;;;11.55;5.80;;;;;;;;;;5110762;27;20149;-81
2023/03/13 05:10:47;;;;;;;18.30;6.88;;;;;;;;;;5121252;27;20047;-82
2023/03/13 05:13:13;;;;;;;27.20;8.00;;;;;;;;;;5117248;27;20051;-81
2023/03/13 05:15:39;;;;;;;30.90;9.27;;;;;;;;;;5119739;27;20417;-81
2023/03/13 05:18:05;;;;;;;18.98;7.07;;;;;;;;;;5118524;28;20072;-80
2023/03/13 05:20:31;;;;;;;19.65;7.07;;;;;;;;;;5118815;28;20056;-81
2023/03/13 05:22:57;;;;;;;20.88;8.30;;;;;;;;;;5118511;28;20504;-81
2023/03/13 05:25:23;;;;;;;24.13;8.23;;;;;;;;;;5118349;28;20082;-80
2023/03/13 05:27:49;;;;;;;30.40;8.23;;;;;;;;;;5114464;28;20119;-81
2023/03/13 05:30:16;;;;;;;21.95;7.57;;;;;;;;;;5112644;28;20087;-80
2023/03/13 05:32:42;;;;;;;22.60;8.27;;;;;;;;;;5124086;28;20147;-80
2023/03/13 05:35:08;;;;;;;29.65;8.07;;;;;;;;;;5129940;28;20490;-80
2023/03/13 05:37:34;;;;;;;29.08;8.68;;;;;;;;;;5129564;27;20071;-80
2023/03/13 05:40:00;;;;;;;26.50;8.38;;;;;;;;;;5122744;28;20047;-80
2023/03/13 05:42:26;;;;;;;22.40;6.82;;;;;;;;;;5129398;28;20554;-81
2023/03/13 05:44:52;;;;;;;31.15;8.13;;;;;;;;;;5121099;28;20046;-81
2023/03/13 05:47:18;;;;;;;18.83;6.43;;;;;;;;;;5117931;28;20057;-80
2023/03/13 05:49:44;;;;;;;30.50;7.93;;;;;;;;;;5122827;28;20487;-80
2023/03/13 05:52:10;;;;;;;20.80;6.85;;;;;;;;;;5124075;27;20394;-80
2023/03/13 05:54:37;;;;;;;23.58;7.78;;;;;;;;;;5125452;28;20494;-80
2023/03/13 05:57:03;;;;;;;26.02;7.95;;;;;;;;;;5122391;27;20039;-80
2023/03/13 05:59:29;;;;;;;29.08;6.97;;;;;;;;;;5117919;28;20046;-80
2023/03/13 06:01:55;;;;;;;24.08;7.72;;;;;;;;;;5135979;27;20122;-80
2023/03/13 06:04:21;;;;;;;20.52;6.93;;;;;;;;;;5117715;28;20482;-81
2023/03/13 06:06:47;;;;;;;22.67;7.93;;;;;;;;;;5117250;28;20044;-80
2023/03/13 06:09:13;;;;;;;24.27;5.63;;;;;;;;;;5119301;28;20500;-80
2023/03/13 06:11:42;;;;;;;21.55;6.47;;;;;;;;;;5116346;28;20439;-80
2023/03/13 06:14:08;;;;;;;27.42;7.80;;;;;;;;;;5121473;28;20497;-80
2023/03/13 06:16:34;;;;;;;19.15;7.60;;;;;;;;;;5135817;27;20078;-80
2023/03/13 06:19:01;;;;;;;19.85;6.43;;;;;;;;;;5122707;28;20042;-81
2023/03/13 06:21:27;;;;;;;17.75;6.30;;;;;;;;;;5138161;27;20063;-80
2023/03/13 06:23:54;;;;;;;29.13;6.97;;;;;;;;;;5144853;27;20113;-81
2023/03/13 06:26:20;;;;;;;27.48;6.47;;;;;;;;;;5125443;27;20054;-80
2023/03/13 06:28:46;;;;;;;20.48;5.95;;;;;;;;;;5131819;27;20050;-80
2023/03/13 06:31:12;;;;;;;24.50;6.68;;;;;;;;;;5119009;27;20110;-81
2023/03/13 06:33:38;;;;;;;16.77;5.72;;;;;;;;;;5122598;27;20070;-80
2023/03/13 06:36:05;;;;;;;25.75;6.80;;;;;;;;;;5126003;27;20074;-80
2023/03/13 06:38:31;;;;;;;28.27;6.70;;;;;;;;;;5138563;27;20499;-81
2023/03/13 06:40:57;;;;;;;20.02;6.68;;;;;;;;;;5125707;27;20046;-80
2023/03/13 06:43:23;;;;;;;24.38;6.57;;;;;;;;;;5121568;27;20069;-80
2023/03/13 06:45:50;;;;;;;18.60;6.32;;;;;;;;;;5141896;27;20055;-80
2023/03/13 06:48:16;;;;;;;20.30;6.10;;;;;;;;;;5122239;27;20484;-81
2023/03/13 06:50:42;;;;;;;26.58;7.25;;;;;;;;;;5148002;27;20035;-80
2023/03/13 06:53:19;;;;;;;19.95;6.47;;;;;;;;;;5151032;27;20034;-81
2023/03/13 06:55:45;;;;;;;20.80;6.25;;;;;;;;;;5128628;27;20055;-81
2023/03/13 06:58:11;;;;;;;15.93;5.50;;;;;;;;;;5122203;27;20046;-81
2023/03/13 07:00:41;;;;;;;19.48;7.18;;;;;;;;;;5142284;27;20042;-80
2023/03/13 07:03:07;;;;;;;26.70;7.00;;;;;;;;;;5123898;27;20043;-80
2023/03/13 07:05:33;;;;;;;23.70;7.00;;;;;;;;;;5138512;27;20122;-80
2023/03/13 07:07:59;;;;;;;22.63;6.30;;;;;;;;;;5148932;27;20118;-81
2023/03/13 07:10:26;;;;;;;17.58;5.78;;;;;;;;;;5129857;27;20521;-80
2023/03/13 07:12:52;;;;;;;25.40;6.78;;;;;;;;;;5142472;27;20423;-81
2023/03/13 07:15:18;;;;;;;20.52;6.05;;;;;;;;;;5125775;27;20205;-80
2023/03/13 07:17:44;;;;;;;20.85;5.50;;;;;;;;;;5144824;27;20062;-81
2023/03/13 07:20:10;;;;;;;20.42;6.03;;;;;;;;;;5123800;27;20170;-80
2023/03/13 07:22:37;;;;;;;28.73;7.03;;;;;;;;;;5120835;27;20545;-80
2023/03/13 07:25:03;;;;;;;29.55;7.20;;;;;;;;;;5123877;27;20473;-81
2023/03/13 07:27:29;;;;;;;20.95;6.13;;;;;;;;;;5120655;27;20145;-80
2023/03/13 07:29:55;;;;;;;12.90;4.82;;;;;;;;;;5125999;27;20042;-80
2023/03/13 07:32:22;;;;;;;23.23;5.63;;;;;;;;;;5123602;27;20050;-79
2023/03/13 07:34:48;;;;;;;22.73;7.65;;;;;;;;;;5123640;27;20137;-80
2023/03/13 07:37:14;;;;;;;21.85;6.75;;;;;;;;;;5139772;27;20054;-80
2023/03/13 07:39:41;;;;;;;23.00;6.43;;;;;;;;;;5144851;27;20070;-81
2023/03/13 07:42:08;;;;;;;26.85;6.40;;;;;;;;;;5122820;27;20489;-81
2023/03/13 07:44:34;;;;;;;23.05;6.78;;;;;;;;;;5122664;27;20039;-81
2023/03/13 07:47:01;;;;;;;22.60;6.40;;;;;;;;;;5129327;27;20414;-81
2023/03/13 07:49:27;;;;;;;22.77;5.70;;;;;;;;;;5137094;27;20039;-81
2023/03/13 07:51:53;;;;;;;24.80;6.78;;;;;;;;;;5131125;27;20047;-81
2023/03/13 07:54:19;;;;;;;23.58;7.40;;;;;;;;;;5139869;27;20035;-81
2023/03/13 07:56:45;;;;;;;23.35;7.05;;;;;;;;;;5127370;27;20527;-82
2023/03/13 07:59:11;;;;;;;25.48;6.10;;;;;;;;;;5137494;27;20043;-79
2023/03/13 08:01:37;;;;;;;18.95;6.07;;;;;;;;;;5146766;27;20038;-80
2023/03/13 08:04:04;;;;;;;18.50;5.57;;;;;;;;;;5122474;27;20043;-79
2023/03/13 08:06:31;;;;;;;17.98;5.10;;;;;;;;;;5121195;27;20054;-80
2023/03/13 08:08:58;;;;;;;18.58;5.63;;;;;;;;;;5148229;27;20034;-80
2023/03/13 08:11:24;;;;;;;31.10;6.50;;;;;;;;;;5143622;27;20494;-79
2023/03/13 08:13:51;;;;;;;23.10;5.60;;;;;;;;;;5141311;27;20046;-79
2023/03/13 08:16:22;;;;;;;19.73;5.30;;;;;;;;;;5124243;27;20458;-79
2023/03/13 08:18:49;;;;;;;20.98;5.57;;;;;;;;;;5122755;27;20034;-79
2023/03/13 08:21:25;;;;;;;20.83;5.20;;;;;;;;;;5147025;27;20070;-78
2023/03/13 08:23:58;;;;;;;24.75;7.43;;;;;;;;;;5114166;27;20130;-79
2023/03/13 08:26:26;;;;;;;20.80;5.60;;;;;;;;;;5130861;27;20046;-79
2023/03/13 08:28:53;;;;;;;25.98;6.18;;;;;;;;;;5149526;27;20035;-78
2023/03/13 08:31:23;;;;;;;21.27;5.60;;;;;;;;;;5127316;27;20126;-79
2023/03/13 08:33:49;;;;;;;21.77;5.65;;;;;;;;;;5124310;27;20031;-79
2023/03/13 08:36:17;;;;;;;18.65;5.18;;;;;;;;;;5123349;27;20035;-79
2023/03/13 08:38:44;;;;;;;19.48;5.07;;;;;;;;;;5124719;27;20117;-79
2023/03/13 08:41:13;;;;;;;14.15;4.82;;;;;;;;;;5124063;27;20035;-79
2023/03/13 08:43:39;;;;;;;12.68;4.95;;;;;;;;;;5124206;27;20487;-79
2023/03/13 08:46:05;;;;;;;17.20;5.65;;;;;;;;;;5125528;27;20612;-79
2023/03/13 08:48:31;;;;;;;10.93;4.53;;;;;;;;;;5120344;27;20043;-79
2023/03/13 08:51:01;;;;;;;15.65;5.32;;;;;;;;;;5127645;27;20117;-79
2023/03/13 08:53:27;;;;;;;17.02;4.82;;;;;;;;;;5142840;27;20043;-79
2023/03/13 08:55:54;;;;;;;15.15;4.65;;;;;;;;;;5120286;27;20047;-79
2023/03/13 08:58:20;;;;;;;18.08;4.47;;;;;;;;;;5115872;27;20127;-79
2023/03/13 09:00:46;;;;;;;12.18;4.95;;;;;;;;;;5145938;27;20051;-78
2023/03/13 09:03:12;;;;;;;14.80;4.72;;;;;;;;;;5130241;27;20046;-79
2023/03/13 09:05:38;;;;;;;19.88;4.50;;;;;;;;;;5121106;27;20054;-79
2023/03/13 09:08:04;;;;;;;21.35;5.20;;;;;;;;;;5122337;27;20096;-79
2023/03/13 09:10:32;;;;;;;13.90;4.50;;;;;;;;;;5129250;27;20050;-79
2023/03/13 09:12:58;;;;;;;24.85;5.32;;;;;;;;;;5147719;27;20047;-79
2023/03/13 09:15:24;;;;;;;22.08;5.57;;;;;;;;;;5116334;27;20051;-79
2023/03/13 09:17:50;;;;;;;17.15;4.95;;;;;;;;;;5123443;27;20039;-79
2023/03/13 09:20:17;;;;;;;18.73;5.53;;;;;;;;;;5145409;27;20061;-79
2023/03/13 09:22:44;;;;;;;18.73;4.90;;;;;;;;;;5143866;27;20058;-79
2023/03/13 09:25:10;;;;;;;22.05;5.45;;;;;;;;;;5130866;27;20039;-79
2023/03/13 09:27:36;;;;;;;18.27;5.80;;;;;;;;;;5122026;27;20435;-79
2023/03/13 09:30:02;;;;;;;17.15;5.05;;;;;;;;;;5127195;27;20042;-80
2023/03/13 09:32:28;;;;;;;16.80;5.50;;;;;;;;;;5125776;27;20043;-79
2023/03/13 09:34:55;;;;;;;18.75;5.57;;;;;;;;;;5130569;27;20035;-80
2023/03/13 09:37:21;;;;;;;21.23;5.25;;;;;;;;;;5123020;27;20394;-79
2023/03/13 09:39:51;;;;;;;19.27;5.28;;;;;;;;;;5128215;28;20040;-78
2023/03/13 09:42:18;;;;;;;11.27;4.47;;;;;;;;;;5143398;27;20060;-79
2023/03/13 09:45:03;;;;;;;19.65;5.25;;;;;;;;;;5122334;27;20386;-79
2023/03/13 09:47:28;;;;;;;20.05;5.20;;;;;;;;;;5121952;27;20579;-79
2023/03/13 09:50:05;;;;;;;19.83;5.18;;;;;;;;;;5121974;28;20036;-79
2023/03/13 09:52:35;;;;;;;24.42;5.50;;;;;;;;;;5146269;27;20082;-79
2023/03/13 09:55:11;;;;;;;19.33;5.03;;;;;;;;;;5127566;27;20043;-79
2023/03/13 09:57:45;;;;;;;12.65;4.28;;;;;;;;;;5129823;27;20031;-79
2023/03/13 10:00:18;;;;;;;12.55;3.80;;;;;;;;;;5145286;27;20050;-79
2023/03/13 10:02:55;;;;;;;27.63;6.60;;;;;;;;;;5149887;27;20525;-79
2023/03/13 10:05:22;;;;;;;17.77;5.65;;;;;;;;;;5150160;27;20058;-79
2023/03/13 10:07:48;;;;;;;16.52;6.00;;;;;;;;;;5151625;27;20478;-79
2023/03/13 10:10:20;;;;;;;24.25;5.95;;;;;;;;;;5126299;27;20154;-79
2023/03/13 10:12:48;;;;;;;15.60;5.70;;;;;;;;;;5146612;27;20039;-79
2023/03/13 10:15:23;;;;;;;28.42;6.00;;;;;;;;;;5145106;27;20038;-79
2023/03/13 10:17:49;;;;;;;26.42;5.47;;;;;;;;;;5130728;27;20439;-78
2023/03/13 10:20:31;;;;;;;25.90;5.70;;;;;;;;;;5118284;27;20050;-79
2023/03/13 10:23:05;;;;;;;25.45;5.55;;;;;;;;;;5125539;27;20047;-79
2023/03/13 10:25:31;;;;;;;;;;;;;;;;;;5133086;27;20046;-79
2023/03/13 10:27:57;;;;;;;16.23;4.63;;;;;;;;;;5127523;27;20277;-78
2023/03/13 10:30:23;;;;;;;24.52;6.00;;;;;;;;;;5149184;27;20049;-79
2023/03/13 10:32:49;;;;;;;26.27;5.32;;;;;;;;;;5125564;27;20478;-78
2023/03/13 10:35:23;;;;;;;18.52;5.00;;;;;;;;;;5150006;27;20624;-79
2023/03/13 10:37:49;;;;;;;;;;;;;;;;;;5122965;27;20530;-79
2023/03/13 10:40:24;;;;;;;27.48;5.95;;;;;;;;;;5125025;27;19922;-78
2023/03/13 10:42:51;;;;;;;21.85;4.95;;;;;;;;;;5146604;27;20039;-78
2023/03/13 10:45:19;;;;;;;20.17;4.88;;;;;;;;;;5131888;27;20692;-78
2023/03/13 10:47:45;;;;;;;19.92;5.38;;;;;;;;;;5148128;27;20038;-78
2023/03/13 10:50:18;;;;;;;17.00;4.93;;;;;;;;;;5129958;27;20109;-79
2023/03/13 10:52:46;;;;;;;25.67;5.78;;;;;;;;;;5143267;27;20046;-79
2023/03/13 10:55:23;;;;;;;18.30;4.75;;;;;;;;;;5150528;27;20110;-79
2023/03/13 10:57:52;;;;;;;21.02;5.57;;;;;;;;;;5143813;27;20046;-79
2023/03/13 11:00:30;;;;;;;17.25;5.03;;;;;;;;;;5125712;27;20050;-79
2023/03/13 11:02:56;;;;;;;21.95;5.65;;;;;;;;;;5143813;27;20047;-78
2023/03/13 11:05:27;;;;;;;25.08;6.13;;;;;;;;;;5127081;27;20534;-79
2023/03/13 11:07:53;;;;;;;20.65;4.90;;;;;;;;;;5150541;27;20486;-79
2023/03/13 11:10:25;;;;;;;18.65;5.45;;;;;;;;;;5121778;27;20077;-79
2023/03/13 11:12:55;;;;;;;18.40;4.97;;;;;;;;;;5150421;27;20035;-79
2023/03/13 11:15:25;;;;;;;21.20;5.57;;;;;;;;;;5119320;27;20382;-80
2023/03/13 11:17:55;;;;;;;19.80;6.88;;;;;;;;;;5149194;27;20050;-79
2023/03/13 11:20:22;;;;;;;17.30;4.80;;;;;;;;;;5117733;27;20101;-79
2023/03/13 11:22:48;;;;;;;16.58;5.20;;;;;;;;;;5118393;27;20137;-79
2023/03/13 11:25:17;;;;;;;15.32;4.65;;;;;;;;;;5122081;27;20138;-79
2023/03/13 11:27:43;;;;;;;18.60;4.57;;;;;;;;;;5128596;27;20134;-78
2023/03/13 11:30:16;;;;;;;21.10;6.07;;;;;;;;;;5128527;27;20106;-79
2023/03/13 11:32:42;;;;;;;;;;;;;;;;;;5123408;27;20137;-79
2023/03/13 11:35:17;;;;;;;22.98;5.32;;;;;;;;;;5123806;27;20014;-79
2023/03/13 11:37:43;;;;;;;23.40;7.07;;;;;;;;;;5122118;27;20051;-79
2023/03/13 11:40:15;;;;;;;23.98;5.72;;;;;;;;;;5129016;27;20046;-79
2023/03/13 11:43:00;;;;;;;24.38;5.60;;;;;;;;;;5124855;27;20044;-79
2023/03/13 11:45:42;;;;;;;25.40;5.60;;;;;;;;;;5123524;27;20059;-79
2023/03/13 11:48:28;;;;;;;21.17;5.60;;;;;;;;;;5112823;27;20050;-79
2023/03/13 11:51:13;;;;;;;22.77;6.63;;;;;;;;;;5126784;27;20035;-79
2023/03/13 11:53:57;;;;;;;25.73;5.90;;;;;;;;;;5127187;27;20118;-79
2023/03/13 11:56:30;;;;;;;24.40;5.72;;;;;;;;;;5126422;27;20055;-79
2023/03/13 11:58:56;;;;;;;21.40;5.90;;;;;;;;;;5125019;27;20048;-79
2023/03/13 12:01:27;;;;;;;25.90;6.07;;;;;;;;;;5118639;27;20502;-79
2023/03/13 12:03:58;;;;;;;27.30;6.05;;;;;;;;;;5128417;27;20039;-79
2023/03/13 12:06:32;;;;;;;23.88;6.43;;;;;;;;;;5128331;27;20047;-79
2023/03/13 12:09:02;;;;;;;21.30;5.95;;;;;;;;;;5115440;27;20038;-79
2023/03/13 12:11:30;;;;;;;24.48;5.55;;;;;;;;;;5128090;27;20102;-79
2023/03/13 12:14:00;;;;;;;22.38;5.32;;;;;;;;;;5117786;27;20147;-78
2023/03/13 12:16:31;;;;;;;24.45;5.13;;;;;;;;;;5123400;27;20047;-79
2023/03/13 12:18:58;;;;;;;21.55;5.57;;;;;;;;;;5119683;27;20051;-79
2023/03/13 12:21:28;;;;;;;16.08;4.75;;;;;;;;;;5119780;27;20058;-79
2023/03/13 12:24:05;;;;;;;23.30;5.13;;;;;;;;;;5125291;27;20070;-80
2023/03/13 12:26:40;;;;;;;17.88;5.15;;;;;;;;;;5127287;27;20514;-79
2023/03/13 12:29:25;;;;;;;14.90;4.63;;;;;;;;;;5121954;27;20126;-79
2023/03/13 12:32:01;;;;;;;21.65;4.82;;;;;;;;;;5119492;27;20046;-79
2023/03/13 12:34:32;;;;;;;21.30;5.88;;;;;;;;;;5120202;27;20055;-79
2023/03/13 12:37:09;;;;;;;15.45;4.97;;;;;;;;;;5126832;27;20047;-79
2023/03/13 12:39:53;;;;;;;18.88;5.18;;;;;;;;;;5124708;27;20040;-79
2023/03/13 12:42:22;;;;;;;18.52;5.72;;;;;;;;;;5126588;27;20031;-79
2023/03/13 12:44:49;;;;;;;19.58;4.50;;;;;;;;;;5128386;27;20508;-79
2023/03/13 12:47:25;;;;;;;28.10;6.95;;;;;;;;;;5126466;27;20047;-79
2023/03/13 12:50:10;;;;;;;18.33;5.43;;;;;;;;;;5114645;27;20107;-78
2023/03/13 12:52:49;;;;;;;21.85;5.38;;;;;;;;;;5119362;27;20162;-79
2023/03/13 12:55:21;;;;;;;20.83;5.95;;;;;;;;;;5124974;27;20053;-79
2023/03/13 12:58:06;;;;;;;16.35;4.85;;;;;;;;;;5123313;27;20043;-79
2023/03/13 13:00:34;;;;;;;28.48;6.03;;;;;;;;;;5119357;27;20082;-79
2023/03/13 13:03:02;;;;;;;23.23;6.82;;;;;;;;;;5127057;27;20146;-79
2023/03/13 13:05:28;;;;;;;29.45;5.63;;;;;;;;;;5118587;27;20035;-80
2023/03/13 13:07:55;;;;;;;20.20;4.75;;;;;;;;;;5120508;27;20043;-80
2023/03/13 13:10:26;;;;;;;25.20;6.40;;;;;;;;;;5121004;27;20044;-79
2023/03/13 13:13:11;;;;;;;26.90;6.22;;;;;;;;;;5118261;27;20121;-79
2023/03/13 13:15:40;;;;;;;23.70;5.50;;;;;;;;;;5122890;27;20560;-79
2023/03/13 13:18:13;;;;;;;26.27;5.45;;;;;;;;;;5120161;27;20495;-79
2023/03/13 13:20:47;;;;;;;16.48;5.13;;;;;;;;;;5134427;27;20103;-79
2023/03/13 13:23:35;;;;;;;31.90;6.95;;;;;;;;;;5145124;27;20047;-79
2023/03/13 13:26:21;;;;;;;26.95;6.43;;;;;;;;;;5138755;27;20042;-79
2023/03/13 13:28:47;;;;;;;27.23;6.18;;;;;;;;;;5138219;27;20078;-80
2023/03/13 13:31:31;;;;;;;21.98;5.32;;;;;;;;;;5137505;27;20047;-80
2023/03/13 13:33:57;;;;;;;27.98;6.40;;;;;;;;;;5147425;27;20041;-79
2023/03/13 13:36:28;;;;;;;29.17;6.00;;;;;;;;;;5132888;27;20043;-79
2023/03/13 13:38:55;;;;;;;22.25;6.38;;;;;;;;;;5129289;27;20386;-80
2023/03/13 13:41:21;;;;;;;23.80;5.90;;;;;;;;;;5128181;27;20054;-79
2023/03/13 13:43:48;;;;;;;21.27;5.38;;;;;;;;;;5135713;27;20049;-79
2023/03/13 13:46:14;;;;;;;22.20;6.13;;;;;;;;;;5121912;27;20053;-79
2023/03/13 13:48:41;;;;;;;19.63;5.28;;;;;;;;;;5132361;27;20031;-79
2023/03/13 13:51:11;;;;;;;19.70;6.95;;;;;;;;;;5122431;27;20475;-79
2023/03/13 13:53:49;;;;;;;18.73;5.90;;;;;;;;;;5145564;27;20039;-79
2023/03/13 13:56:27;;;;;;;25.63;6.90;;;;;;;;;;5146475;27;20098;-79
2023/03/13 13:58:58;;;;;;;22.90;6.20;;;;;;;;;;5124597;27;20049;-79
2023/03/13 14:01:24;;;;;;;21.85;6.68;;;;;;;;;;5146417;27;20035;-79
2023/03/13 14:03:51;;;;;;;23.15;6.07;;;;;;;;;;5151547;27;20038;-79
2023/03/13 14:06:17;;;;;;;23.65;6.28;;;;;;;;;;5125608;27;20039;-79
2023/03/13 14:08:45;;;;;;;22.73;6.55;;;;;;;;;;5148074;27;20039;-79
2023/03/13 14:11:14;;;;;;;22.95;6.45;;;;;;;;;;5150708;27;20393;-79
2023/03/13 14:13:40;;;;;;;18.05;5.68;;;;;;;;;;5127256;27;20117;-79
2023/03/13 14:16:24;;;;;;;20.13;5.88;;;;;;;;;;5129276;27;20054;-79
2023/03/13 14:18:51;;;;;;;22.13;6.13;;;;;;;;;;5128614;27;20035;-79
2023/03/13 14:21:21;;;;;;;22.50;6.72;;;;;;;;;;5152188;27;20057;-79
2023/03/13 14:23:47;;;;;;;21.35;6.18;;;;;;;;;;5150684;27;20050;-79
2023/03/13 14:26:13;;;;;;;19.98;6.13;;;;;;;;;;5147480;27;20043;-79
2023/03/13 14:28:41;;;;;;;22.67;6.32;;;;;;;;;;5145297;27;20034;-79
2023/03/13 14:31:07;;;;;;;23.67;7.18;;;;;;;;;;5148748;27;20038;-79
2023/03/13 14:33:34;;;;;;;20.58;6.55;;;;;;;;;;5125845;27;20043;-79
2023/03/13 14:36:00;;;;;;;26.88;6.22;;;;;;;;;;5126297;27;20042;-79
2023/03/13 14:38:28;;;;;;;21.27;5.70;;;;;;;;;;5122266;27;20054;-79